Aeroporto :
LOGIN :

Iscrizione | Disclaimer

   EN    FR    IT 

 










Sommario :    VFR   VFR Marginale   IFR   IFR Intensivo   IFR Molto Intensivo
Visibilità : 
Base nubi : 
>= 8 km
>= 3000ft
5 / 8 km
1000 / 3000 ft
1500m / 5 km
500 / 1000 ft
800 / 1500m
200 / 500 ft
< 800m
< 200 ft
Simboli :   Temporali  Nebbia  Neve Forte  Precipitazioni Forti  Vento > 20 kt
SIGMETs :   Varie  Temporali  Ghiacco  Turbolenza  Onda orograficha  Ceneri Vulcaniche






- Altitudine del aeroporto : 249 ft


EGOS - RAF Shawbury

ULTIMO METAR :
  • 051650Z 22019KT 9999 BKN019 10/07 Q1009 NOSIG RMK WHT WHT

METARs OBSOLETI :
  • 051621Z 22020KT 9999 BKN019 10/07 Q1009 NOSIG RMK WHT WHT
  • 051550Z 22019KT 9999 BKN020 10/06 Q1010 TEMPO BKN025 RMK WHT TEMPO BLU
  • 051520Z 22015KT 9999 BKN024 10/06 Q1010 TEMPO 22018G28KT RMK WHT TEMPO WHT
  • 051450Z 21016KT 9999 BKN028 10/05 Q1011 TEMPO 22018G28KT BKN022 RMK BLU TEMPO WHT
  • 051420Z 22019KT 9999 FEW018 SCT032 BKN100 10/06 Q1011 TEMPO 22020G30KT SCT022 RMK BLU TEMPO WHT

TAF TAF EGOS
Valido dal 05 a 15 ore il 05 a 18 ore UTC


051346Z 0515/0518 22020G30KT 9999 FEW020 BKN040
TEMPO 0515/0518 BKN020



MetMap, La meteo Aeronautica in un colpo d'occhio ! - Copyright ORBIFLY Dicembre 2007 - Disclaimer

ORBIFLY MET'MAP TEAM :

Programmazione e sviluppo : Alexandra Zaïnal
Concezione : Baudouin d'Aumeries
Aiuto per la programmazione : Marc-Olivier Méhu
Supporto tecnico e logistico : Manuel Goepfert
Aiuto per la traduzione : Arnaldo La Scala

Contatto : metmap@orbifly.com




FONTI E CREDITI :

   NOAA